Private Wetterstation Wechselburg
Wetterdaten: Woche 20.06.22 - 26.06.22 (KW25)
Datum Zeit Temp. +2m Bodentemp. Temp.+5cm Temp. Wind Windchill X Diff Temp. Feuchte +2m Feuchte +5cm Luftdruck Regen Wind Richtung Sonnenschein Taupunkt Windchill Windben
20.06.2022 00:00 19,3 C 21,9 C 18,3 C 18,9 C 18,1 C 0,0 C 80 % 81 % 1012,1 hPa 0,0 l/m 0,0 km/h (0 Bft) N 0,00 h 15,7 C 18,1 C 0,0 km/h (0 Bft)
20.06.2022 01:00 18,6 C 21,6 C 18,0 C 18,4 C 17,9 C 0,0 C 81 % 81 % 1012,1 hPa 0,0 l/m 0,4 km/h (0 Bft) N 0,00 h 15,3 C 17,9 C 1,3 km/h (1 Bft)
20.06.2022 02:00 18,8 C 21,3 C 18,2 C 18,7 C 18,4 C 0,0 C 78 % 79 % 1012,3 hPa 0,0 l/m 0,9 km/h (0 Bft) O 0,00 h 14,9 C 18,4 C 2,0 km/h (1 Bft)
20.06.2022 03:00 18,0 C 21,2 C 17,4 C 17,9 C 17,6 C 0,0 C 78 % 78 % 1011,6 hPa 0,0 l/m 4,9 km/h (1 Bft) O-NO 0,00 h 14,0 C 17,6 C 5,8 km/h (2 Bft)
20.06.2022 04:00 17,1 C 20,9 C 16,4 C 16,8 C 16,4 C 0,0 C 75 % 77 % 1011,3 hPa 0,0 l/m 0,7 km/h (0 Bft) N-NO 0,00 h 12,5 C 16,4 C 0,6 km/h (0 Bft)
20.06.2022 05:00 16,5 C 20,7 C 16,0 C 16,4 C 16,0 C 0,0 C 76 % 78 % 1011,6 hPa 0,0 l/m 0,5 km/h (0 Bft) O-NO 0,00 h 12,3 C 16,0 C 0,6 km/h (0 Bft)
20.06.2022 06:00 16,6 C 20,5 C 16,5 C 17,1 C 17,1 C 0,6 C 77 % 77 % 1011,2 hPa 0,0 l/m 1,6 km/h (1 Bft) O-NO 0,00 h 12,5 C 17,1 C 1,6 km/h (1 Bft)
20.06.2022 07:00 17,6 C 20,4 C 17,8 C 19,5 C 19,5 C 1,8 C 75 % 74 % 1011,0 hPa 0,0 l/m 1,5 km/h (1 Bft) W 0,00 h 13,2 C 19,5 C 2,8 km/h (1 Bft)
20.06.2022 08:00 18,0 C 20,2 C 18,2 C 19,6 C 19,6 C 1,6 C 79 % 77 % 1012,3 hPa 0,0 l/m 3,0 km/h (1 Bft) NW 0,00 h 14,2 C 19,6 C 5,2 km/h (1 Bft)
20.06.2022 09:00 18,6 C 20,0 C 19,2 C 21,0 C 21,0 C 2,4 C 77 % 74 % 1012,3 hPa 0,0 l/m 1,2 km/h (1 Bft) N-NO 0,00 h 14,5 C 21,0 C 1,7 km/h (1 Bft)
20.06.2022 10:00 19,4 C 19,9 C 20,5 C 22,5 C 22,5 C 3,0 C 74 % 72 % 1012,3 hPa 0,0 l/m 1,4 km/h (1 Bft) O-NO 0,25 h 14,8 C 22,5 C 1,4 km/h (1 Bft)
20.06.2022 11:00 19,7 C 19,9 C 20,0 C 20,9 C 20,9 C 1,3 C 74 % 72 % 1012,5 hPa 0,0 l/m 0,3 km/h (0 Bft) S-SO 0,00 h 14,8 C 20,9 C 0,7 km/h (0 Bft)
20.06.2022 12:00 17,4 C 19,9 C 17,4 C 17,6 C 17,6 C 0,2 C 79 % 78 % 1012,9 hPa 0,0 l/m 1,9 km/h (1 Bft) W 0,00 h 13,7 C 17,6 C 4,0 km/h (1 Bft)
20.06.2022 13:00 16,1 C 20,0 C 15,9 C 16,0 C 15,7 C 0,0 C 84 % 81 % 1013,8 hPa 0,0 l/m 2,4 km/h (1 Bft) W 0,00 h 13,4 C 15,7 C 3,3 km/h (1 Bft)
20.06.2022 14:00 14,7 C 19,9 C 14,3 C 14,5 C 14,1 C 0,0 C 86 % 83 % 1015,3 hPa 0,7 l/m 3,8 km/h (1 Bft) W-SW 0,00 h 12,4 C 14,1 C 8,8 km/h (2 Bft)
20.06.2022 15:00 13,0 C 19,8 C 12,8 C 12,9 C 12,7 C 0,0 C 88 % 84 % 1016,4 hPa 0,7 l/m 2,9 km/h (1 Bft) SO 0,00 h 11,0 C 12,7 C 4,1 km/h (1 Bft)
20.06.2022 16:00 11,9 C 19,5 C 11,9 C 11,8 C 11,7 C 0,0 C 88 % 84 % 1016,5 hPa 0,7 l/m 1,4 km/h (1 Bft) W 0,00 h 9,9 C 11,7 C 1,2 km/h (1 Bft)
20.06.2022 17:00 11,6 C 19,2 C 12,4 C 12,3 C 12,3 C 0,7 C 88 % 84 % 1016,3 hPa 0,0 l/m 0,1 km/h (0 Bft) N 0,00 h 9,7 C 12,3 C 0,1 km/h (0 Bft)
20.06.2022 18:00 12,1 C 19,0 C 13,5 C 14,4 C 14,4 C 2,3 C 88 % 84 % 1016,3 hPa 0,0 l/m 0,3 km/h (0 Bft) N 0,25 h 10,1 C 14,4 C 0,6 km/h (0 Bft)
20.06.2022 19:00 13,8 C 18,6 C 14,0 C 17,5 C 17,5 C 3,7 C 87 % 83 % 1016,2 hPa 0,0 l/m 0,7 km/h (0 Bft) O-SO 0,92 h 11,6 C 17,5 C 0,9 km/h (0 Bft)
20.06.2022 20:00 14,0 C 18,4 C 13,1 C 17,5 C 17,5 C 3,5 C 84 % 83 % 1016,1 hPa 0,0 l/m 0,1 km/h (0 Bft) N 0,92 h 11,3 C 17,5 C 0,1 km/h (0 Bft)
20.06.2022 21:00 14,0 C 18,5 C 11,9 C 13,2 C 11,7 C 0,0 C 84 % 84 % 1016,4 hPa 0,0 l/m 0,3 km/h (0 Bft) N 0,00 h 11,3 C 11,7 C 0,4 km/h (0 Bft)
20.06.2022 22:00 14,0 C 18,5 C 10,8 C 12,8 C 10,4 C 0,0 C 84 % 84 % 1016,8 hPa 0,0 l/m 0,0 km/h (0 Bft) N 0,00 h 11,3 C 10,4 C 0,0 km/h (0 Bft)
20.06.2022 23:00 14,0 C 18,3 C 10,9 C 12,9 C 10,7 C 0,0 C 84 % 84 % 1016,9 hPa 0,0 l/m 0,0 km/h (0 Bft) N 0,00 h 11,3 C 10,7 C 0,0 km/h (0 Bft)
21.06.2022 00:00 14,0 C 17,9 C 10,9 C 12,9 C 10,8 C 0,0 C 84 % 84 % 1017,3 hPa 0,0 l/m 0,1 km/h (0 Bft) N 0,00 h 11,3 C 10,8 C 0,0 km/h (0 Bft)
21.06.2022 01:00 14,0 C 17,9 C 10,1 C 12,5 C 9,6 C 0,0 C 84 % 84 % 1017,3 hPa 0,0 l/m 0,0 km/h (0 Bft) N 0,00 h 11,3 C 9,6 C 0,0 km/h (0 Bft)
21.06.2022 02:00 14,0 C 17,9 C 9,2 C 12,2 C 8,6 C 0,0 C 84 % 85 % 1017,8 hPa 0,0 l/m 0,0 km/h (0 Bft) N 0,00 h 11,3 C 8,6 C 0,0 km/h (0 Bft)
21.06.2022 03:00 14,0 C 17,8 C 8,3 C 11,9 C 7,7 C 0,0 C 84 % 85 % 1018,2 hPa 0,0 l/m 0,0 km/h (0 Bft) N 0,00 h 11,3 C 7,7 C 0,0 km/h (0 Bft)
21.06.2022 04:00 14,0 C 17,6 C 7,6 C 11,7 C 6,9 C 0,0 C 84 % 85 % 1018,2 hPa 0,0 l/m 0,0 km/h (0 Bft) N 0,00 h 11,3 C 6,9 C 0,0 km/h (0 Bft)
21.06.2022 05:00 14,0 C 17,5 C 7,1 C 11,6 C 6,7 C 0,0 C 84 % 85 % 1018,4 hPa 0,0 l/m 0,0 km/h (0 Bft) N 0,00 h 11,3 C 6,7 C 0,0 km/h (0 Bft)
21.06.2022 06:00 14,0 C 17,3 C 8,2 C 12,2 C 8,5 C 0,0 C 84 % 86 % 1018,5 hPa 0,0 l/m 0,0 km/h (0 Bft) N 0,00 h 11,3 C 8,5 C 0,3 km/h (0 Bft)
21.06.2022 07:00 14,0 C 16,9 C 10,5 C 14,5 C 13,7 C 0,8 C 84 % 85 % 1018,9 hPa 0,0 l/m 0,1 km/h (0 Bft) N 0,00 h 11,3 C 13,7 C 0,5 km/h (0 Bft)
21.06.2022 08:00 13,4 C 16,7 C 12,8 C 16,6 C 16,6 C 3,2 C 85 % 84 % 1019,1 hPa 0,0 l/m 0,2 km/h (0 Bft) N 0,58 h 11,0 C 16,6 C 0,8 km/h (0 Bft)
21.06.2022 09:00 14,3 C 16,7 C 14,0 C 19,8 C 19,8 C 5,5 C 80 % 81 % 1019,2 hPa 0,0 l/m 0,3 km/h (0 Bft) N 1,00 h 10,8 C 19,8 C 0,9 km/h (0 Bft)
21.06.2022 10:00 15,4 C 16,5 C 15,4 C 21,5 C 21,5 C 6,0 C 73 % 75 % 1019,4 hPa 0,0 l/m 0,9 km/h (0 Bft) W 1,00 h 10,5 C 21,5 C 2,9 km/h (1 Bft)
21.06.2022 11:00 16,9 C 16,6 C 16,5 C 24,0 C 24,0 C 7,1 C 67 % 70 % 1019,4 hPa 0,0 l/m 0,8 km/h (0 Bft) O-SO 1,00 h 10,7 C 24,0 C 2,4 km/h (1 Bft)
21.06.2022 12:00 19,0 C 16,6 C 17,1 C 25,4 C 25,4 C 6,4 C 59 % 66 % 1019,1 hPa 0,0 l/m 0,7 km/h (0 Bft) W 1,00 h 10,9 C 25,4 C 1,6 km/h (1 Bft)
21.06.2022 13:00 22,4 C 16,6 C 19,0 C 27,3 C 27,3 C 4,9 C 49 % 59 % 1018,5 hPa 0,0 l/m 1,3 km/h (1 Bft) W-SW 1,00 h 11,1 C 27,3 C 2,7 km/h (1 Bft)
21.06.2022 14:00 23,9 C 16,7 C 24,4 C 28,9 C 28,9 C 5,0 C 44 % 47 % 1018,0 hPa 0,0 l/m 0,7 km/h (0 Bft) N-NO 1,00 h 10,7 C 28,9 C 1,8 km/h (1 Bft)
21.06.2022 15:00 22,8 C 16,9 C 24,5 C 29,4 C 29,4 C 6,6 C 44 % 43 % 1017,6 hPa 0,0 l/m 0,7 km/h (0 Bft) W 1,00 h 10,0 C 29,4 C 1,3 km/h (1 Bft)
21.06.2022 16:00 22,4 C 17,1 C 24,4 C 28,8 C 28,8 C 6,5 C 43 % 41 % 1017,1 hPa 0,0 l/m 1,8 km/h (1 Bft) O-NO 1,00 h 9,3 C 28,8 C 2,3 km/h (1 Bft)
21.06.2022 17:00 22,1 C 17,2 C 23,2 C 26,4 C 26,4 C 4,2 C 43 % 41 % 1016,2 hPa 0,0 l/m 1,4 km/h (1 Bft) O-NO 0,77 h 9,0 C 26,4 C 2,4 km/h (1 Bft)
21.06.2022 18:00 22,7 C 17,4 C 23,0 C 26,6 C 26,6 C 3,9 C 44 % 42 % 1016,0 hPa 0,0 l/m 0,9 km/h (0 Bft) NO 0,47 h 9,7 C 26,6 C 1,9 km/h (1 Bft)
21.06.2022 19:00 22,0 C 17,5 C 21,7 C 24,5 C 24,5 C 2,5 C 46 % 46 % 1015,7 hPa 0,0 l/m 3,2 km/h (1 Bft) O-NO 0,33 h 9,9 C 24,5 C 3,7 km/h (1 Bft)
21.06.2022 20:00 20,5 C 17,6 C 20,1 C 21,7 C 21,7 C 1,2 C 51 % 50 % 1015,6 hPa 0,0 l/m 3,3 km/h (1 Bft) O-NO 0,57 h 9,9 C 21,7 C 3,8 km/h (1 Bft)
21.06.2022 21:00 19,0 C 17,7 C 18,1 C 18,7 C 18,1 C 0,0 C 54 % 56 % 1015,8 hPa 0,0 l/m 1,2 km/h (1 Bft) O-NO 0,00 h 9,5 C 18,1 C 1,0 km/h (0 Bft)
21.06.2022 22:00 17,4 C 17,8 C 16,5 C 17,2 C 16,6 C 0,0 C 61 % 65 % 1016,0 hPa 0,0 l/m 0,0 km/h (0 Bft) N 0,00 h 9,9 C 16,6 C 0,0 km/h (0 Bft)
21.06.2022 23:00 16,2 C 17,7 C 15,0 C 15,7 C 14,8 C 0,0 C 65 % 70 % 1015,3 hPa 0,0 l/m 0,1 km/h (0 Bft) N 0,00 h 9,7 C 14,8 C 0,0 km/h (0 Bft)
22.06.2022 00:00 14,3 C 17,7 C 13,1 C 13,7 C 12,6 C 0,0 C 72 % 76 % 1015,7 hPa 0,0 l/m 0,0 km/h (0 Bft) N 0,00 h 9,4 C 12,6 C 0,0 km/h (0 Bft)
22.06.2022 01:00 13,7 C 17,7 C 13,3 C 13,5 C 13,3 C 0,0 C 78 % 78 % 1015,6 hPa 0,0 l/m 0,0 km/h (0 Bft) N 0,00 h 9,8 C 13,3 C 0,0 km/h (0 Bft)
22.06.2022 02:00 13,9 C 17,7 C 13,6 C 13,9 C 13,8 C 0,1 C 78 % 78 % 1015,8 hPa 0,0 l/m 0,0 km/h (0 Bft) N 0,00 h 10,1 C 13,8 C 0,0 km/h (0 Bft)
22.06.2022 03:00 13,5 C 17,6 C 12,8 C 13,3 C 12,7 C 0,0 C 79 % 79 % 1015,3 hPa 0,0 l/m 0,0 km/h (0 Bft) N 0,00 h 9,9 C 12,7 C 0,0 km/h (0 Bft)
22.06.2022 04:00 13,0 C 17,6 C 12,4 C 12,8 C 12,3 C 0,0 C 81 % 81 % 1014,9 hPa 0,0 l/m 0,2 km/h (0 Bft) N 0,00 h 9,8 C 12,3 C 0,5 km/h (0 Bft)
22.06.2022 05:00 13,0 C 17,4 C 12,9 C 13,1 C 13,0 C 0,2 C 82 % 81 % 1014,7 hPa 0,0 l/m 0,0 km/h (0 Bft) N 0,00 h 10,0 C 13,0 C 0,0 km/h (0 Bft)
22.06.2022 06:00 14,1 C 17,4 C 14,2 C 15,0 C 15,0 C 0,9 C 81 % 79 % 1014,9 hPa 0,0 l/m 0,0 km/h (0 Bft) N 0,00 h 10,8 C 15,0 C 0,0 km/h (0 Bft)
22.06.2022 07:00 15,6 C 17,3 C 15,7 C 17,2 C 17,2 C 1,6 C 76 % 75 % 1014,7 hPa 0,0 l/m 0,0 km/h (0 Bft) N 0,00 h 11,4 C 17,2 C 0,0 km/h (0 Bft)
22.06.2022 08:00 18,0 C 17,3 C 17,8 C 21,9 C 21,9 C 3,8 C 69 % 69 % 1015,1 hPa 0,0 l/m 0,1 km/h (0 Bft) N 0,50 h 12,4 C 21,9 C 0,2 km/h (0 Bft)
22.06.2022 09:00 20,8 C 17,3 C 20,2 C 24,8 C 24,8 C 3,9 C 60 % 61 % 1014,9 hPa 0,0 l/m 0,2 km/h (0 Bft) N 0,83 h 12,7 C 24,8 C 0,0 km/h (0 Bft)
22.06.2022 10:00 22,6 C 17,3 C 21,8 C 27,9 C 27,9 C 5,3 C 58 % 59 % 1014,7 hPa 0,0 l/m 1,0 km/h (0 Bft) NO 0,92 h 13,8 C 27,9 C 2,7 km/h (1 Bft)
22.06.2022 11:00 23,9 C 17,4 C 22,8 C 30,5 C 30,5 C 6,6 C 50 % 51 % 1014,8 hPa 0,0 l/m 1,3 km/h (1 Bft) O 1,00 h 12,8 C 30,5 C 3,1 km/h (1 Bft)
22.06.2022 12:00 25,5 C 17,5 C 23,8 C 31,5 C 31,5 C 6,0 C 43 % 44 % 1015,0 hPa 0,0 l/m 2,1 km/h (1 Bft) NO 1,00 h 11,9 C 31,5 C 4,0 km/h (1 Bft)
22.06.2022 13:00 27,4 C 17,6 C 25,3 C 32,2 C 32,2 C 4,8 C 38 % 41 % 1014,5 hPa 0,0 l/m 2,0 km/h (1 Bft) O-NO 1,00 h 12,0 C 32,2 C 2,5 km/h (1 Bft)
22.06.2022 14:00 29,1 C 17,8 C 29,8 C 34,4 C 34,4 C 5,3 C 37 % 35 % 1014,5 hPa 0,0 l/m 1,7 km/h (1 Bft) W-SW 1,00 h 12,7 C 34,4 C 2,9 km/h (1 Bft)
22.06.2022 15:00 27,9 C 18,1 C 29,2 C 34,2 C 34,2 C 6,3 C 38 % 34 % 1014,0 hPa 0,0 l/m 2,2 km/h (1 Bft) O-NO 1,00 h 12,1 C 34,2 C 3,5 km/h (1 Bft)
22.06.2022 16:00 27,9 C 18,2 C 29,2 C 34,1 C 34,1 C 6,1 C 38 % 35 % 1013,5 hPa 0,0 l/m 2,1 km/h (1 Bft) O-NO 1,00 h 12,3 C 34,1 C 3,0 km/h (1 Bft)
22.06.2022 17:00 27,8 C 18,4 C 28,3 C 32,1 C 32,1 C 4,3 C 39 % 37 % 1013,0 hPa 0,0 l/m 2,0 km/h (1 Bft) O-NO 1,00 h 12,7 C 32,1 C 1,7 km/h (1 Bft)
22.06.2022 18:00 27,9 C 18,7 C 27,6 C 30,9 C 30,9 C 3,0 C 40 % 38 % 1013,0 hPa 0,0 l/m 1,3 km/h (1 Bft) NO 0,42 h 12,9 C 30,9 C 1,3 km/h (1 Bft)
22.06.2022 19:00 27,4 C 18,8 C 26,8 C 30,8 C 30,8 C 3,4 C 39 % 38 % 1013,1 hPa 0,0 l/m 0,9 km/h (0 Bft) N-NO 0,83 h 12,0 C 30,8 C 1,3 km/h (1 Bft)
22.06.2022 20:00 26,2 C 18,9 C 24,7 C 29,5 C 29,5 C 3,3 C 42 % 44 % 1013,4 hPa 0,0 l/m 0,0 km/h (0 Bft) N 1,00 h 12,1 C 29,5 C 0,0 km/h (0 Bft)
22.06.2022 21:00 23,4 C 19,0 C 21,2 C 23,0 C 22,1 C 0,0 C 48 % 54 % 1013,7 hPa 0,0 l/m 0,0 km/h (0 Bft) N 0,00 h 11,7 C 22,1 C 0,0 km/h (0 Bft)
22.06.2022 22:00 20,4 C 19,1 C 18,6 C 19,9 C 18,7 C 0,0 C 56 % 62 % 1014,2 hPa 0,0 l/m 0,1 km/h (0 Bft) N 0,00 h 11,5 C 18,7 C 0,1 km/h (0 Bft)
22.06.2022 23:00 18,3 C 19,1 C 16,9 C 17,7 C 16,4 C 0,0 C 66 % 70 % 1014,7 hPa 0,0 l/m 0,0 km/h (0 Bft) N 0,00 h 11,8 C 16,4 C 0,0 km/h (0 Bft)
23.06.2022 00:00 16,4 C 19,0 C 15,1 C 15,7 C 14,3 C 0,0 C 71 % 75 % 1015,1 hPa 0,0 l/m 0,0 km/h (0 Bft) N 0,00 h 11,1 C 14,3 C 0,0 km/h (0 Bft)
23.06.2022 01:00 14,7 C 19,0 C 13,6 C 14,0 C 12,7 C 0,0 C 75 % 78 % 1015,1 hPa 0,0 l/m 0,0 km/h (0 Bft) N 0,00 h 10,4 C 12,7 C 0,0 km/h (0 Bft)
23.06.2022 02:00 13,4 C 18,9 C 12,5 C 12,8 C 11,6 C 0,0 C 79 % 81 % 1015,3 hPa 0,0 l/m 0,0 km/h (0 Bft) N 0,00 h 9,9 C 11,6 C 0,0 km/h (0 Bft)
23.06.2022 03:00 12,3 C 18,8 C 11,5 C 11,8 C 10,7 C 0,0 C 82 % 82 % 1015,6 hPa 0,0 l/m 0,0 km/h (0 Bft) N 0,00 h 9,3 C 10,7 C 0,0 km/h (0 Bft)
23.06.2022 04:00 11,4 C 18,7 C 10,7 C 10,9 C 9,9 C 0,0 C 83 % 83 % 1016,0 hPa 0,0 l/m 0,0 km/h (0 Bft) N 0,00 h 8,6 C 9,9 C 0,0 km/h (0 Bft)
23.06.2022 05:00 10,9 C 18,5 C 10,4 C 10,5 C 9,7 C 0,0 C 85 % 83 % 1016,4 hPa 0,0 l/m 0,0 km/h (0 Bft) N 0,00 h 8,4 C 9,7 C 0,0 km/h (0 Bft)
23.06.2022 06:00 11,1 C 18,3 C 10,9 C 11,1 C 10,9 C 0,2 C 86 % 83 % 1016,8 hPa 0,0 l/m 0,0 km/h (0 Bft) N 0,00 h 8,9 C 10,9 C 0,0 km/h (0 Bft)
23.06.2022 07:00 14,1 C 18,0 C 14,0 C 24,7 C 24,7 C 10,6 C 86 % 82 % 1017,3 hPa 0,0 l/m 0,0 km/h (0 Bft) N 0,83 h 11,8 C 24,7 C 0,0 km/h (0 Bft)
23.06.2022 08:00 20,0 C 17,9 C 16,4 C 32,9 C 32,9 C 12,9 C 69 % 77 % 1017,7 hPa 0,0 l/m 0,1 km/h (0 Bft) N 1,00 h 14,1 C 32,9 C 0,5 km/h (0 Bft)
23.06.2022 09:00 23,8 C 17,9 C 19,4 C 31,6 C 31,6 C 7,9 C 56 % 68 % 1017,7 hPa 0,0 l/m 0,9 km/h (0 Bft) NO 0,92 h 14,3 C 31,6 C 1,7 km/h (1 Bft)
23.06.2022 10:00 25,1 C 17,9 C 22,4 C 32,4 C 32,4 C 7,3 C 51 % 57 % 1017,5 hPa 0,0 l/m 1,7 km/h (1 Bft) O-NO 1,00 h 14,3 C 32,4 C 4,1 km/h (1 Bft)
23.06.2022 11:00 27,3 C 18,0 C 25,1 C 33,6 C 33,6 C 6,3 C 39 % 42 % 1017,4 hPa 0,0 l/m 2,9 km/h (1 Bft) O-NO 1,00 h 12,2 C 33,6 C 4,0 km/h (1 Bft)
23.06.2022 12:00 28,0 C 18,2 C 26,5 C 33,0 C 33,0 C 5,0 C 37 % 39 % 1017,3 hPa 0,0 l/m 4,2 km/h (1 Bft) N-NO 1,00 h 12,0 C 33,0 C 4,8 km/h (1 Bft)
23.06.2022 13:00 29,5 C 18,4 C 27,4 C 33,9 C 33,9 C 4,4 C 35 % 36 % 1016,8 hPa 0,0 l/m 3,3 km/h (1 Bft) NO 1,00 h 12,2 C 33,9 C 4,2 km/h (1 Bft)
23.06.2022 14:00 30,3 C 18,6 C 31,7 C 35,5 C 35,5 C 5,2 C 32 % 29 % 1016,2 hPa 0,0 l/m 2,7 km/h (1 Bft) NO 1,00 h 11,8 C 35,5 C 3,3 km/h (1 Bft)
23.06.2022 15:00 30,4 C 18,8 C 31,8 C 36,4 C 36,4 C 5,9 C 31 % 28 % 1015,4 hPa 0,0 l/m 3,1 km/h (1 Bft) O-NO 1,00 h 11,5 C 36,4 C 4,8 km/h (1 Bft)
23.06.2022 16:00 30,4 C 19,1 C 31,7 C 36,2 C 36,2 C 5,7 C 31 % 28 % 1014,9 hPa 0,0 l/m 3,4 km/h (1 Bft) O-NO 1,00 h 11,5 C 36,2 C 4,3 km/h (1 Bft)
23.06.2022 17:00 30,3 C 19,3 C 31,0 C 34,4 C 34,4 C 4,1 C 32 % 28 % 1014,5 hPa 0,0 l/m 4,5 km/h (1 Bft) O-NO 0,75 h 11,7 C 34,4 C 4,8 km/h (1 Bft)
23.06.2022 18:00 30,0 C 19,4 C 30,0 C 31,9 C 31,9 C 1,9 C 31 % 29 % 1014,0 hPa 0,0 l/m 4,1 km/h (1 Bft) O-NO 0,00 h 11,2 C 31,9 C 5,6 km/h (1 Bft)
23.06.2022 19:00 29,3 C 19,6 C 28,9 C 31,2 C 31,2 C 1,9 C 31 % 29 % 1013,7 hPa 0,0 l/m 5,3 km/h (1 Bft) O-NO 0,17 h 10,4 C 31,2 C 6,4 km/h (2 Bft)
23.06.2022 20:00 28,0 C 19,8 C 27,2 C 29,4 C 29,4 C 1,4 C 35 % 34 % 1013,8 hPa 0,0 l/m 4,1 km/h (1 Bft) O-NO 0,83 h 10,9 C 29,4 C 4,4 km/h (1 Bft)
23.06.2022 21:00 25,8 C 19,8 C 24,5 C 25,4 C 24,8 C 0,0 C 39 % 40 % 1013,9 hPa 0,0 l/m 3,8 km/h (1 Bft) O-NO 0,00 h 10,9 C 24,8 C 4,0 km/h (1 Bft)
23.06.2022 22:00 23,5 C 19,9 C 21,7 C 22,8 C 21,5 C 0,0 C 47 % 50 % 1014,0 hPa 0,0 l/m 1,2 km/h (1 Bft) O-NO 0,00 h 11,6 C 21,5 C 1,3 km/h (1 Bft)
23.06.2022 23:00 20,4 C 19,9 C 18,6 C 19,7 C 18,4 C 0,0 C 56 % 60 % 1014,0 hPa 0,0 l/m 0,0 km/h (0 Bft) N 0,00 h 11,1 C 18,4 C 0,0 km/h (0 Bft)
24.06.2022 00:00 18,0 C 19,9 C 16,6 C 17,3 C 15,9 C 0,0 C 63 % 67 % 1013,9 hPa 0,0 l/m 0,0 km/h (0 Bft) N 0,00 h 10,9 C 15,9 C 0,0 km/h (0 Bft)
24.06.2022 01:00 16,6 C 19,8 C 15,7 C 16,2 C 15,4 C 0,0 C 69 % 71 % 1013,6 hPa 0,0 l/m 0,0 km/h (0 Bft) N 0,00 h 10,9 C 15,4 C 0,0 km/h (0 Bft)
24.06.2022 02:00 15,6 C 19,7 C 14,8 C 15,3 C 14,6 C 0,0 C 73 % 74 % 1013,7 hPa 0,0 l/m 0,0 km/h (0 Bft) N 0,00 h 10,7 C 14,6 C 0,0 km/h (0 Bft)
24.06.2022 03:00 15,0 C 19,5 C 14,2 C 14,6 C 14,0 C 0,0 C 74 % 75 % 1013,7 hPa 0,0 l/m 0,0 km/h (0 Bft) N 0,00 h 10,4 C 14,0 C 0,0 km/h (0 Bft)
24.06.2022 04:00 14,1 C 19,4 C 13,2 C 13,7 C 13,0 C 0,0 C 76 % 77 % 1013,5 hPa 0,0 l/m 0,2 km/h (0 Bft) N 0,00 h 9,9 C 13,0 C 0,4 km/h (0 Bft)
24.06.2022 05:00 13,3 C 19,2 C 12,6 C 13,0 C 12,3 C 0,0 C 78 % 79 % 1013,6 hPa 0,0 l/m 0,0 km/h (0 Bft) N 0,00 h 9,6 C 12,3 C 0,0 km/h (0 Bft)
24.06.2022 06:00 13,2 C 19,1 C 12,9 C 13,4 C 13,2 C 0,3 C 81 % 80 % 1013,3 hPa 0,0 l/m 0,0 km/h (0 Bft) N 0,00 h 10,0 C 13,2 C 0,2 km/h (0 Bft)
24.06.2022 07:00 18,9 C 18,9 C 18,7 C 24,7 C 24,7 C 5,8 C 71 % 70 % 1013,1 hPa 0,0 l/m 4,2 km/h (1 Bft) NO 0,83 h 13,3 C 24,7 C 6,5 km/h (2 Bft)
24.06.2022 08:00 23,3 C 18,9 C 22,6 C 29,1 C 29,1 C 5,8 C 53 % 55 % 1012,9 hPa 0,0 l/m 6,6 km/h (2 Bft) NO 1,00 h 13,2 C 29,1 C 8,7 km/h (2 Bft)
24.06.2022 09:00 25,4 C 18,9 C 24,2 C 29,8 C 29,8 C 4,5 C 48 % 50 % 1012,5 hPa 0,0 l/m 5,6 km/h (1 Bft) NO 0,83 h 13,7 C 29,8 C 5,7 km/h (1 Bft)
24.06.2022 10:00 27,9 C 19,0 C 26,1 C 33,8 C 33,8 C 5,9 C 41 % 43 % 1011,6 hPa 0,0 l/m 3,6 km/h (1 Bft) O-NO 1,00 h 13,4 C 33,8 C 5,9 km/h (2 Bft)
24.06.2022 11:00 29,3 C 19,1 C 28,3 C 34,1 C 34,1 C 4,8 C 37 % 38 % 1011,0 hPa 0,0 l/m 4,0 km/h (1 Bft) NO 1,00 h 13,2 C 34,1 C 7,4 km/h (2 Bft)
24.06.2022 12:00 27,0 C 19,2 C 26,8 C 28,6 C 28,6 C 1,7 C 46 % 45 % 1011,4 hPa 0,0 l/m 2,0 km/h (1 Bft) S 0,00 h 14,3 C 28,6 C 2,6 km/h (1 Bft)
24.06.2022 13:00 25,0 C 19,4 C 25,2 C 26,3 C 26,3 C 1,4 C 55 % 52 % 1011,8 hPa 0,0 l/m 1,3 km/h (1 Bft) S-SO 0,00 h 15,2 C 26,3 C 1,8 km/h (1 Bft)
24.06.2022 14:00 22,8 C 19,5 C 21,9 C 22,3 C 21,3 C 0,0 C 64 % 65 % 1012,4 hPa 0,0 l/m 1,1 km/h (1 Bft) SW 0,00 h 15,5 C 21,3 C 1,3 km/h (1 Bft)
24.06.2022 15:00 22,3 C 19,8 C 22,3 C 22,9 C 22,6 C 0,8 C 75 % 75 % 1011,7 hPa 0,0 l/m 0,3 km/h (0 Bft) N 0,00 h 17,6 C 22,6 C 1,0 km/h (0 Bft)
24.06.2022 16:00 23,5 C 19,6 C 23,2 C 25,7 C 25,7 C 2,2 C 71 % 72 % 1010,8 hPa 0,0 l/m 0,1 km/h (0 Bft) N 0,00 h 17,9 C 25,7 C 0,0 km/h (0 Bft)
24.06.2022 17:00 24,2 C 19,6 C 25,1 C 28,9 C 28,9 C 4,7 C 67 % 65 % 1009,9 hPa 0,0 l/m 1,3 km/h (1 Bft) O-NO 0,83 h 17,6 C 28,9 C 1,6 km/h (1 Bft)
24.06.2022 18:00 25,0 C 19,7 C 25,2 C 28,3 C 28,3 C 3,3 C 62 % 60 % 1009,6 hPa 0,0 l/m 1,3 km/h (1 Bft) NO 0,42 h 17,1 C 28,3 C 1,6 km/h (1 Bft)
24.06.2022 19:00 24,9 C 19,8 C 23,9 C 26,5 C 26,5 C 1,6 C 60 % 62 % 1009,8 hPa 0,0 l/m 0,7 km/h (0 Bft) NO 0,17 h 16,7 C 26,5 C 1,1 km/h (0 Bft)
24.06.2022 20:00 23,7 C 19,8 C 22,4 C 24,5 C 24,4 C 0,9 C 63 % 66 % 1009,5 hPa 0,0 l/m 2,4 km/h (1 Bft) NO 0,33 h 16,2 C 24,4 C 2,9 km/h (1 Bft)
24.06.2022 21:00 21,8 C 19,8 C 20,4 C 21,3 C 20,5 C 0,0 C 69 % 72 % 1010,0 hPa 0,0 l/m 0,2 km/h (0 Bft) N 0,00 h 15,9 C 20,5 C 0,0 km/h (0 Bft)
24.06.2022 22:00 19,9 C 19,9 C 18,6 C 19,4 C 18,4 C 0,0 C 76 % 78 % 1010,8 hPa 0,0 l/m 0,0 km/h (0 Bft) N 0,00 h 15,4 C 18,4 C 0,0 km/h (0 Bft)
24.06.2022 23:00 18,6 C 19,9 C 17,6 C 18,1 C 17,3 C 0,0 C 80 % 81 % 1010,9 hPa 0,0 l/m 0,0 km/h (0 Bft) N 0,00 h 15,1 C 17,3 C 0,0 km/h (0 Bft)
25.06.2022 00:00 18,3 C 19,9 C 17,7 C 18,1 C 17,8 C 0,0 C 83 % 81 % 1010,9 hPa 0,0 l/m 0,0 km/h (0 Bft) N 0,00 h 15,3 C 17,8 C 0,0 km/h (0 Bft)
25.06.2022 01:00 18,4 C 19,8 C 17,9 C 18,3 C 18,2 C 0,0 C 84 % 81 % 1010,6 hPa 0,0 l/m 0,0 km/h (0 Bft) N 0,00 h 15,6 C 18,2 C 0,0 km/h (0 Bft)
25.06.2022 02:00 19,0 C 19,6 C 18,4 C 19,0 C 18,9 C 0,0 C 83 % 81 % 1011,3 hPa 0,0 l/m 0,1 km/h (0 Bft) N 0,00 h 16,1 C 18,9 C 0,2 km/h (0 Bft)
25.06.2022 03:00 19,1 C 19,6 C 18,4 C 18,9 C 18,6 C 0,0 C 84 % 81 % 1011,7 hPa 0,0 l/m 0,2 km/h (0 Bft) N 0,00 h 16,2 C 18,6 C 0,6 km/h (0 Bft)
25.06.2022 04:00 18,7 C 19,6 C 18,0 C 18,5 C 18,1 C 0,0 C 84 % 82 % 1012,0 hPa 0,0 l/m 0,2 km/h (0 Bft) N 0,00 h 15,9 C 18,1 C 0,0 km/h (0 Bft)
25.06.2022 05:00 18,2 C 19,5 C 17,7 C 18,0 C 17,8 C 0,0 C 83 % 81 % 1012,8 hPa 0,0 l/m 0,0 km/h (0 Bft) N 0,00 h 15,2 C 17,8 C 0,4 km/h (0 Bft)
25.06.2022 06:00 18,2 C 19,4 C 17,9 C 18,3 C 18,3 C 0,2 C 81 % 79 % 1013,0 hPa 0,0 l/m 0,2 km/h (0 Bft) N 0,00 h 14,8 C 18,3 C 0,8 km/h (0 Bft)
25.06.2022 07:00 19,0 C 19,3 C 18,9 C 20,2 C 20,2 C 1,2 C 80 % 78 % 1013,4 hPa 0,0 l/m 0,0 km/h (0 Bft) N 0,00 h 15,5 C 20,2 C 0,3 km/h (0 Bft)
25.06.2022 08:00 19,7 C 19,2 C 19,8 C 22,0 C 22,0 C 2,2 C 79 % 76 % 1014,1 hPa 0,0 l/m 1,0 km/h (0 Bft) SW 0,00 h 15,9 C 22,0 C 1,7 km/h (1 Bft)
25.06.2022 09:00 20,5 C 19,2 C 21,1 C 23,3 C 23,3 C 2,8 C 77 % 74 % 1014,4 hPa 0,0 l/m 0,6 km/h (0 Bft) SW 0,00 h 16,4 C 23,3 C 1,2 km/h (1 Bft)
25.06.2022 10:00 22,3 C 19,2 C 22,9 C 25,2 C 25,2 C 3,0 C 74 % 71 % 1014,6 hPa 0,0 l/m 0,2 km/h (0 Bft) N 0,55 h 17,4 C 25,2 C 0,7 km/h (0 Bft)
25.06.2022 11:00 24,8 C 19,3 C 25,7 C 29,4 C 29,4 C 4,5 C 67 % 63 % 1014,7 hPa 0,0 l/m 0,4 km/h (0 Bft) N 1,00 h 18,2 C 29,4 C 0,8 km/h (0 Bft)
25.06.2022 12:00 26,3 C 19,3 C 27,1 C 30,9 C 30,9 C 4,6 C 61 % 57 % 1014,2 hPa 0,0 l/m 0,8 km/h (0 Bft) SO 1,00 h 18,0 C 30,9 C 1,7 km/h (1 Bft)
25.06.2022 13:00 27,0 C 19,4 C 27,8 C 31,3 C 31,3 C 4,2 C 57 % 54 % 1014,3 hPa 0,0 l/m 0,5 km/h (0 Bft) W-SW 1,00 h 17,9 C 31,3 C 0,8 km/h (0 Bft)
25.06.2022 14:00 28,2 C 19,5 C 28,9 C 32,0 C 32,0 C 3,8 C 52 % 48 % 1014,1 hPa 0,0 l/m 0,4 km/h (0 Bft) N 1,00 h 17,2 C 32,0 C 0,3 km/h (0 Bft)
25.06.2022 15:00 28,2 C 19,5 C 28,5 C 30,9 C 30,9 C 2,8 C 51 % 48 % 1013,9 hPa 0,0 l/m 0,4 km/h (0 Bft) NO 0,33 h 17,0 C 30,9 C 1,1 km/h (1 Bft)
25.06.2022 16:00 27,0 C 19,6 C 27,7 C 28,8 C 28,8 C 1,8 C 53 % 50 % 1014,0 hPa 0,0 l/m 3,0 km/h (1 Bft) O-NO 0,00 h 16,4 C 28,8 C 2,0 km/h (1 Bft)
25.06.2022 17:00 26,6 C 19,6 C 27,1 C 28,0 C 28,0 C 1,4 C 54 % 52 % 1013,7 hPa 0,0 l/m 3,2 km/h (1 Bft) NO 0,00 h 16,6 C 28,0 C 3,6 km/h (1 Bft)
25.06.2022 18:00 25,7 C 19,7 C 25,7 C 26,2 C 26,2 C 0,5 C 59 % 57 % 1013,8 hPa 0,0 l/m 3,3 km/h (1 Bft) NO 0,00 h 17,0 C 26,2 C 3,8 km/h (1 Bft)
25.06.2022 19:00 25,3 C 19,8 C 24,8 C 25,6 C 25,5 C 0,3 C 61 % 61 % 1013,9 hPa 0,0 l/m 0,5 km/h (0 Bft) NO 0,00 h 17,3 C 25,5 C 0,5 km/h (0 Bft)
25.06.2022 20:00 25,4 C 19,9 C 25,0 C 28,0 C 28,0 C 2,6 C 62 % 61 % 1014,1 hPa 0,0 l/m 0,4 km/h (0 Bft) NO 1,00 h 17,6 C 28,0 C 0,8 km/h (0 Bft)
25.06.2022 21:00 24,2 C 20,0 C 23,0 C 24,0 C 23,5 C 0,0 C 65 % 67 % 1014,2 hPa 0,0 l/m 0,0 km/h (0 Bft) N 0,00 h 17,1 C 23,5 C 0,0 km/h (0 Bft)
25.06.2022 22:00 22,6 C 20,0 C 21,4 C 22,3 C 21,7 C 0,0 C 70 % 72 % 1014,6 hPa 0,0 l/m 0,1 km/h (0 Bft) N 0,00 h 16,8 C 21,7 C 0,2 km/h (0 Bft)
25.06.2022 23:00 21,5 C 20,0 C 20,5 C 21,2 C 20,5 C 0,0 C 75 % 76 % 1014,3 hPa 0,0 l/m 0,0 km/h (0 Bft) N 0,00 h 16,8 C 20,5 C 0,0 km/h (0 Bft)
26.06.2022 00:00 20,3 C 20,0 C 19,2 C 19,9 C 19,1 C 0,0 C 78 % 78 % 1014,4 hPa 0,0 l/m 0,0 km/h (0 Bft) N 0,00 h 16,3 C 19,1 C 0,0 km/h (0 Bft)
26.06.2022 01:00 18,8 C 20,2 C 17,7 C 18,3 C 17,3 C 0,0 C 81 % 81 % 1014,3 hPa 0,0 l/m 0,3 km/h (0 Bft) NO 0,00 h 15,4 C 17,3 C 0,4 km/h (0 Bft)
26.06.2022 02:00 17,6 C 20,2 C 16,6 C 17,1 C 16,1 C 0,0 C 84 % 82 % 1014,6 hPa 0,0 l/m 0,0 km/h (0 Bft) N 0,00 h 14,8 C 16,1 C 0,0 km/h (0 Bft)
26.06.2022 03:00 16,7 C 20,2 C 15,8 C 16,3 C 15,4 C 0,0 C 86 % 83 % 1014,7 hPa 0,0 l/m 0,0 km/h (0 Bft) N 0,00 h 14,3 C 15,4 C 0,0 km/h (0 Bft)
26.06.2022 04:00 15,9 C 20,1 C 15,1 C 15,6 C 14,8 C 0,0 C 86 % 83 % 1014,7 hPa 0,0 l/m 0,0 km/h (0 Bft) N 0,00 h 13,6 C 14,8 C 0,0 km/h (0 Bft)
26.06.2022 05:00 15,4 C 19,9 C 14,8 C 15,1 C 14,6 C 0,0 C 87 % 83 % 1015,3 hPa 0,0 l/m 0,0 km/h (0 Bft) N 0,00 h 13,2 C 14,6 C 0,0 km/h (0 Bft)
26.06.2022 06:00 15,4 C 19,8 C 15,6 C 15,9 C 15,8 C 0,5 C 87 % 83 % 1015,6 hPa 0,0 l/m 0,0 km/h (0 Bft) N 0,00 h 13,3 C 15,8 C 0,0 km/h (0 Bft)
26.06.2022 07:00 17,9 C 19,4 C 19,2 C 27,9 C 27,9 C 9,9 C 87 % 82 % 1015,9 hPa 0,0 l/m 0,0 km/h (0 Bft) N 0,83 h 15,7 C 27,9 C 0,0 km/h (0 Bft)
26.06.2022 08:00 23,4 C 19,3 C 21,1 C 30,1 C 30,1 C 6,7 C 73 % 77 % 1016,1 hPa 0,0 l/m 0,3 km/h (0 Bft) N 1,00 h 18,3 C 30,1 C 0,9 km/h (0 Bft)
26.06.2022 09:00 26,3 C 19,3 C 22,3 C 34,8 C 34,8 C 8,4 C 59 % 70 % 1016,2 hPa 0,0 l/m 0,3 km/h (0 Bft) N 1,00 h 17,7 C 34,8 C 0,4 km/h (0 Bft)
26.06.2022 10:00 26,6 C 19,3 C 23,8 C 35,2 C 35,2 C 8,5 C 55 % 63 % 1016,3 hPa 0,0 l/m 0,7 km/h (0 Bft) S 1,00 h 16,7 C 35,2 C 1,2 km/h (1 Bft)
26.06.2022 11:00 28,6 C 19,4 C 26,0 C 36,2 C 36,2 C 7,5 C 49 % 55 % 1016,5 hPa 0,0 l/m 0,4 km/h (0 Bft) W-SW 1,00 h 17,0 C 36,2 C 0,6 km/h (0 Bft)
26.06.2022 12:00 29,8 C 19,6 C 27,8 C 36,5 C 36,5 C 6,7 C 45 % 47 % 1016,4 hPa 0,0 l/m 1,6 km/h (1 Bft) NO 1,00 h 16,5 C 36,5 C 2,0 km/h (1 Bft)
26.06.2022 13:00 32,3 C 19,7 C 30,2 C 38,2 C 38,2 C 5,9 C 40 % 42 % 1015,9 hPa 0,0 l/m 1,4 km/h (1 Bft) NO 1,00 h 16,8 C 38,2 C 1,9 km/h (1 Bft)
26.06.2022 14:00 31,6 C 19,9 C 33,7 C 36,3 C 36,3 C 4,6 C 38 % 34 % 1015,8 hPa 0,0 l/m 4,0 km/h (1 Bft) O-NO 0,83 h 15,3 C 36,3 C 5,9 km/h (2 Bft)
26.06.2022 15:00 31,5 C 20,1 C 33,8 C 37,5 C 37,5 C 6,0 C 38 % 33 % 1015,6 hPa 0,0 l/m 2,3 km/h (1 Bft) O-NO 1,00 h 15,5 C 37,5 C 3,9 km/h (1 Bft)
26.06.2022 16:00 31,0 C 20,3 C 31,8 C 35,3 C 35,3 C 4,4 C 39 % 35 % 1015,3 hPa 0,0 l/m 3,1 km/h (1 Bft) NO 0,58 h 15,4 C 35,3 C 4,0 km/h (1 Bft)
26.06.2022 17:00 30,4 C 20,5 C 31,2 C 33,2 C 33,2 C 2,8 C 43 % 39 % 1015,4 hPa 0,0 l/m 3,7 km/h (1 Bft) NO 0,40 h 16,4 C 33,2 C 5,1 km/h (1 Bft)
26.06.2022 18:00 30,5 C 20,6 C 30,9 C 32,6 C 32,6 C 2,1 C 44 % 41 % 1015,0 hPa 0,0 l/m 4,8 km/h (1 Bft) O-NO 0,00 h 16,8 C 32,6 C 6,0 km/h (2 Bft)
26.06.2022 19:00 30,2 C 20,8 C 30,0 C 32,2 C 32,2 C 2,0 C 45 % 42 % 1015,0 hPa 0,0 l/m 4,0 km/h (1 Bft) O-NO 0,17 h 16,8 C 32,2 C 4,6 km/h (1 Bft)
26.06.2022 20:00 29,3 C 20,9 C 28,6 C 30,9 C 30,9 C 1,7 C 48 % 47 % 1014,9 hPa 0,0 l/m 4,0 km/h (1 Bft) O-NO 0,92 h 17,2 C 30,9 C 4,2 km/h (1 Bft)
26.06.2022 21:00 27,6 C 21,1 C 26,3 C 27,3 C 26,7 C 0,0 C 55 % 55 % 1015,1 hPa 0,0 l/m 0,6 km/h (0 Bft) O-NO 0,00 h 17,6 C 26,7 C 0,5 km/h (0 Bft)
26.06.2022 22:00 24,9 C 21,2 C 23,3 C 24,5 C 23,5 C 0,0 C 62 % 64 % 1015,2 hPa 0,0 l/m 0,2 km/h (0 Bft) N 0,00 h 17,1 C 23,5 C 0,1 km/h (0 Bft)
26.06.2022 23:00 23,1 C 21,1 C 21,7 C 22,6 C 21,6 C 0,0 C 68 % 70 % 1015,2 hPa 0,0 l/m 0,0 km/h (0 Bft) N 0,00 h 17,0 C 21,6 C 0,0 km/h (0 Bft)
Min-Datum _ 23.06.22 21.06.22 21.06.22 23.06.22 21.06.22 20.06.22 23.06.22 23.06.22 24.06.22 - 20.06.22 - - 23.06.22 21.06.22 20.06.22
_ Min-Zeit 05:35 10:05 05:25 05:35 05:20 00:00 15:50 15:10 20:30 - 00:00 - - 05:10 05:20 00:00
Minimum _ 10,8 C 16,5 C 6,9 C 10,4 C 6,5 C 0,0 C 30 % 26 % 1009,3 hPa - 0,0 km/h (0 Bft) - - 8,3 C 6,5 C 0,0 km/h (0 Bft)
Max-Datum _ 26.06.22 20.06.22 26.06.22 26.06.22 26.06.22 23.06.22 20.06.22 21.06.22 21.06.22 20.06.22 24.06.22 - 21.06.22 26.06.22 26.06.22 20.06.22
_ Max-Zeit 13:55 00:30 14:40 13:55 13:55 07:35 15:25 05:00 11:10 14:15 09:00 - 20:26 07:55 13:55 14:55
Maximum _ 34,7 C 22,0 C 35,3 C 40,6 C 40,6 C 13,6 C 88 % 86 % 1019,7 hPa 0,7 l/m 8,4 km/h
NO (2 Bft)
- 0,25 h 19,1 C 40,6 C 24,6 km/h
W-SW (4 Bft)
Durchschnitt _ 20,8 C 19,0 C 20,1 C 22,9 C 22,5 C 2,3 C 65 % 65 % 1014,6 hPa #2,1 l/m 1,1 km/h (1 Bft) O-NO #59:05 h 13,2 C 22,5 C 1,6 km/h (1 Bft)
2022 www.wetterstation-wechselburg.de